createdAt,value
2022-12-11T00:00:10.011Z,7.63
2022-12-11T00:03:15.912Z,7.88
2022-12-11T00:06:19.949Z,7.53
2022-12-11T00:09:22.256Z,9.15
2022-12-11T00:12:24.512Z,6.72
2022-12-11T00:15:26.719Z,7.68
2022-12-11T00:18:28.987Z,7.95
2022-12-11T00:21:31.200Z,6.70
2022-12-11T00:24:33.536Z,6.43
2022-12-11T00:27:35.801Z,7.35
2022-12-11T00:30:44.812Z,6.22
2022-12-11T00:33:50.511Z,6.30
2022-12-11T00:36:52.623Z,6.40
2022-12-11T00:39:54.817Z,7.30
2022-12-11T00:42:57.024Z,6.68
2022-12-11T00:45:59.273Z,6.95
2022-12-11T00:49:01.476Z,6.93
2022-12-11T00:52:03.769Z,7.93
2022-12-11T00:55:06.119Z,7.22
2022-12-11T00:58:08.391Z,8.88
2022-12-11T01:01:11.634Z,7.53
2022-12-11T01:04:13.921Z,7.63
2022-12-11T01:07:16.144Z,7.60
2022-12-11T01:10:24.527Z,6.43
2022-12-11T01:13:26.801Z,6.97
2022-12-11T01:16:29.012Z,8.02
2022-12-11T01:19:31.225Z,8.68
2022-12-11T01:22:33.555Z,7.97
2022-12-11T01:25:35.857Z,8.30
2022-12-11T01:28:38.160Z,9.25
2022-12-11T01:31:40.409Z,9.20
2022-12-11T01:34:42.731Z,9.15
2022-12-11T01:37:45.456Z,9.90
2022-12-11T01:40:54.166Z,10.13
2022-12-11T01:44:00.645Z,9.88
2022-12-11T01:47:02.815Z,9.73
2022-12-11T01:50:05.474Z,11.13
2022-12-11T01:53:09.873Z,9.33
2022-12-11T01:56:12.275Z,10.60
2022-12-11T01:59:15.847Z,8.85
2022-12-11T02:02:23.893Z,9.30
2022-12-11T02:05:26.109Z,9.35
2022-12-11T02:08:28.612Z,7.80
2022-12-11T02:11:44.850Z,9.15
2022-12-11T02:14:55.467Z,8.70
2022-12-11T02:18:00.648Z,9.73
2022-12-11T02:21:29.297Z,9.30
2022-12-11T02:24:50.308Z,7.50
2022-12-11T02:28:11.339Z,9.18
2022-12-11T02:31:22.158Z,8.63
2022-12-11T02:34:36.684Z,8.27
2022-12-11T02:37:41.840Z,8.70
2022-12-11T02:40:44.637Z,8.10
2022-12-11T02:43:48.194Z,9.48
2022-12-11T02:46:51.052Z,8.57
2022-12-11T02:49:54.338Z,7.43
2022-12-11T02:52:57.637Z,8.82
2022-12-11T02:56:04.092Z,7.97
2022-12-11T02:59:09.026Z,7.03
2022-12-11T03:02:12.333Z,7.30
2022-12-11T03:05:14.942Z,6.50
2022-12-11T03:08:18.658Z,6.60
2022-12-11T03:11:20.972Z,5.90
2022-12-11T03:14:23.143Z,6.82
2022-12-11T03:17:27.924Z,5.70
2022-12-11T03:20:43.245Z,6.00
2022-12-11T03:23:50.137Z,6.07
2022-12-11T03:27:01.049Z,4.40
2022-12-11T03:30:11.530Z,4.60
2022-12-11T03:33:15.764Z,4.32
2022-12-11T03:36:21.297Z,4.47
2022-12-11T03:39:33.774Z,3.95
2022-12-11T03:42:36.359Z,4.03
2022-12-11T03:45:40.192Z,4.07
2022-12-11T03:48:43.749Z,4.20
2022-12-11T03:51:47.291Z,3.63
2022-12-11T03:54:50.860Z,4.10
2022-12-11T03:57:53.026Z,3.80
2022-12-11T04:00:55.230Z,4.45
2022-12-11T04:03:57.477Z,3.40
2022-12-11T04:06:59.803Z,3.45
2022-12-11T04:10:02.730Z,3.33
2022-12-11T04:13:04.991Z,3.27
2022-12-11T04:16:07.716Z,2.72
2022-12-11T04:19:28.476Z,3.80
2022-12-11T04:22:49.179Z,3.17
2022-12-11T04:25:51.618Z,3.42
2022-12-11T04:28:53.806Z,3.83
2022-12-11T04:31:56.146Z,3.42
2022-12-11T04:34:58.349Z,2.72
2022-12-11T04:38:01.261Z,3.22
2022-12-11T04:41:05.236Z,3.08
2022-12-11T04:44:07.736Z,4.50
2022-12-11T04:47:10.094Z,2.80
2022-12-11T04:50:13.069Z,3.20
2022-12-11T04:53:15.256Z,3.60
2022-12-11T04:56:17.458Z,4.10
2022-12-11T04:59:19.590Z,3.60
2022-12-11T05:02:21.798Z,5.00
2022-12-11T05:05:24.091Z,5.20
2022-12-11T05:08:26.298Z,4.63
2022-12-11T05:11:28.454Z,4.65
2022-12-11T05:14:32.456Z,5.20
2022-12-11T05:17:34.749Z,4.80
2022-12-11T05:20:36.946Z,4.00
2022-12-11T05:23:39.404Z,6.30
2022-12-11T05:26:41.661Z,3.75
2022-12-11T05:29:43.908Z,4.23
2022-12-11T05:32:46.035Z,5.07
2022-12-11T05:35:48.625Z,5.90
2022-12-11T05:38:51.425Z,4.15
2022-12-11T05:41:53.592Z,5.40
2022-12-11T05:44:56.088Z,4.80
2022-12-11T05:47:58.286Z,4.35
2022-12-11T05:51:01.463Z,5.45
2022-12-11T05:54:03.702Z,5.82
2022-12-11T05:57:05.969Z,5.03
2022-12-11T06:00:09.108Z,6.10
2022-12-11T06:03:11.490Z,5.53
2022-12-11T06:06:13.958Z,5.47
2022-12-11T06:09:16.517Z,4.75
2022-12-11T06:12:18.719Z,5.35
2022-12-11T06:15:20.871Z,5.67
2022-12-11T06:18:23.053Z,5.80
2022-12-11T06:21:34.352Z,5.20
2022-12-11T06:24:36.714Z,4.78
2022-12-11T06:27:38.905Z,4.75
2022-12-11T06:30:41.149Z,5.80
2022-12-11T06:33:43.513Z,5.43
2022-12-11T06:36:45.693Z,6.60
2022-12-11T06:39:47.874Z,6.05
2022-12-11T06:42:50.081Z,5.75
2022-12-11T06:45:52.557Z,6.83
2022-12-11T06:48:54.836Z,5.20
2022-12-11T06:51:57.072Z,5.40
2022-12-11T06:54:59.255Z,6.05
2022-12-11T06:58:01.493Z,6.15
2022-12-11T07:01:04.575Z,6.27
2022-12-11T07:04:06.834Z,4.82
2022-12-11T07:07:09.653Z,5.07
2022-12-11T07:10:12.129Z,4.80
2022-12-11T07:13:14.357Z,5.20
2022-12-11T07:16:17.236Z,5.50
2022-12-11T07:19:19.434Z,6.13
2022-12-11T07:22:21.702Z,5.20
2022-12-11T07:25:23.922Z,6.07
2022-12-11T07:28:26.385Z,3.92
2022-12-11T07:31:29.240Z,5.13
2022-12-11T07:34:31.791Z,4.15
2022-12-11T07:37:34.119Z,5.15
2022-12-11T07:40:37.176Z,5.20
2022-12-11T07:43:39.373Z,4.45
2022-12-11T07:46:41.570Z,3.70
2022-12-11T07:49:43.783Z,4.13
2022-12-11T07:52:46.036Z,4.10
2022-12-11T07:55:48.356Z,3.72
2022-12-11T07:58:50.731Z,3.95
2022-12-11T08:01:53.013Z,3.47
2022-12-11T08:04:55.272Z,4.03
2022-12-11T08:07:57.504Z,4.07
2022-12-11T08:11:03.998Z,3.83
2022-12-11T08:14:07.883Z,3.50
2022-12-11T08:17:10.110Z,3.23
2022-12-11T08:20:12.352Z,3.80
2022-12-11T08:23:14.604Z,4.30
2022-12-11T08:26:18.332Z,3.38
2022-12-11T08:29:20.613Z,3.13
2022-12-11T08:32:22.968Z,4.20
2022-12-11T08:35:26.021Z,2.88
2022-12-11T08:38:28.560Z,3.33
2022-12-11T08:41:30.835Z,3.40
2022-12-11T08:44:33.350Z,2.78
2022-12-11T08:47:35.604Z,3.10
2022-12-11T08:50:38.224Z,3.47
2022-12-11T08:53:40.737Z,3.95
2022-12-11T08:56:44.212Z,2.70
2022-12-11T08:59:46.394Z,3.85
2022-12-11T09:02:48.614Z,3.83
2022-12-11T09:05:50.930Z,3.72
2022-12-11T09:08:53.887Z,3.45
2022-12-11T09:11:56.711Z,4.18
2022-12-11T09:14:58.908Z,4.35
2022-12-11T09:18:01.184Z,3.20
2022-12-11T09:21:04.841Z,3.65
2022-12-11T09:24:07.169Z,3.00
2022-12-11T09:27:09.418Z,3.25
2022-12-11T09:30:11.816Z,2.97
2022-12-11T09:33:15.109Z,3.07
2022-12-11T09:36:17.780Z,2.70
2022-12-11T09:39:20.013Z,2.20
2022-12-11T09:42:32.984Z,3.20
2022-12-11T09:45:35.378Z,3.38
2022-12-11T09:48:38.333Z,2.20
2022-12-11T09:51:42.884Z,3.03
2022-12-11T09:54:49.903Z,2.78
2022-12-11T09:58:15.387Z,3.30
2022-12-11T10:01:34.726Z,3.00
2022-12-11T10:04:43.093Z,2.17
2022-12-11T10:07:45.524Z,2.22
2022-12-11T10:11:00.035Z,2.28
2022-12-11T10:14:14.682Z,2.22
2022-12-11T10:17:21.408Z,2.35
2022-12-11T10:20:26.947Z,1.60
2022-12-11T10:23:38.360Z,1.70
2022-12-11T10:26:40.628Z,1.48
2022-12-11T10:29:43.038Z,2.20
2022-12-11T10:32:57.485Z,2.03
2022-12-11T10:35:59.899Z,2.13
2022-12-11T10:39:02.447Z,2.10
2022-12-11T10:42:14.506Z,2.00
2022-12-11T10:45:16.762Z,1.60
2022-12-11T10:48:18.993Z,1.48
2022-12-11T10:51:22.265Z,1.73
2022-12-11T10:54:30.581Z,1.27
2022-12-11T10:57:36.555Z,1.58
2022-12-11T11:00:39.985Z,2.50
2022-12-11T11:03:51.833Z,2.60
2022-12-11T11:07:04.222Z,1.60
2022-12-11T11:10:17.293Z,1.95
2022-12-11T11:13:21.642Z,2.15
2022-12-11T11:16:24.383Z,2.00
2022-12-11T11:19:26.621Z,1.83
2022-12-11T11:22:28.870Z,2.10
2022-12-11T11:25:32.905Z,2.30
2022-12-11T11:28:40.671Z,2.03
2022-12-11T11:31:43.063Z,2.60
2022-12-11T11:34:45.348Z,2.47
2022-12-11T11:37:55.864Z,2.60
2022-12-11T11:41:07.608Z,2.58
2022-12-11T11:44:15.934Z,2.70
2022-12-11T11:47:22.148Z,2.45
2022-12-11T11:50:31.317Z,2.58
2022-12-11T11:53:38.013Z,2.50
2022-12-11T11:56:40.261Z,2.35
2022-12-11T11:59:49.304Z,1.92
2022-12-11T12:02:54.586Z,1.98
2022-12-11T12:06:12.059Z,2.50
2022-12-11T12:09:32.318Z,2.30
2022-12-11T12:12:37.612Z,1.75
2022-12-11T12:15:46.766Z,2.33
2022-12-11T12:19:11.901Z,2.35
2022-12-11T12:22:14.336Z,2.30
2022-12-11T12:25:25.927Z,2.67
2022-12-11T12:28:40.509Z,2.40
2022-12-11T12:31:58.055Z,2.40
2022-12-11T12:35:00.234Z,2.83
2022-12-11T12:38:08.582Z,2.55
2022-12-11T12:41:14.261Z,2.63
2022-12-11T12:44:18.627Z,2.13
2022-12-11T12:47:22.153Z,2.58
2022-12-11T12:50:26.411Z,2.70
2022-12-11T12:53:29.925Z,2.25
2022-12-11T12:56:32.672Z,2.73
2022-12-11T12:59:34.974Z,2.35
2022-12-11T13:02:38.323Z,2.72
2022-12-11T13:05:42.221Z,3.00
2022-12-11T13:08:47.274Z,2.88
2022-12-11T13:11:53.688Z,2.70
2022-12-11T13:14:56.918Z,2.80
2022-12-11T13:17:59.923Z,2.63
2022-12-11T13:21:03.536Z,2.70
2022-12-11T13:24:21.125Z,2.50
2022-12-11T13:27:44.859Z,3.03
2022-12-11T13:30:57.350Z,2.88
2022-12-11T13:34:07.100Z,3.15
2022-12-11T13:37:32.033Z,2.97
2022-12-11T13:40:38.030Z,2.78
2022-12-11T13:43:42.345Z,2.60
2022-12-11T13:46:44.543Z,2.92
2022-12-11T13:49:48.993Z,3.75
2022-12-11T13:52:58.295Z,2.72
2022-12-11T13:56:02.752Z,3.00
2022-12-11T13:59:04.942Z,2.70
2022-12-11T14:02:29.840Z,2.95
2022-12-11T14:05:33.500Z,3.47
2022-12-11T14:08:37.330Z,3.33
2022-12-11T14:11:41.238Z,3.58
2022-12-11T14:14:49.957Z,3.70
2022-12-11T14:17:52.752Z,3.35
2022-12-11T14:20:58.824Z,2.80
2022-12-11T14:24:03.759Z,3.78
2022-12-11T14:27:16.126Z,3.25
2022-12-11T14:30:22.896Z,3.20
2022-12-11T14:33:35.520Z,2.95
2022-12-11T14:36:38.905Z,3.50
2022-12-11T14:39:44.804Z,3.28
2022-12-11T14:42:48.476Z,3.33
2022-12-11T14:45:55.632Z,2.57
2022-12-11T14:49:01.471Z,3.63
2022-12-11T14:52:04.570Z,3.83
2022-12-11T14:55:15.558Z,3.80
2022-12-11T14:58:20.621Z,3.80
2022-12-11T15:01:24.871Z,4.63
2022-12-11T15:04:28.934Z,3.78
2022-12-11T15:07:31.586Z,4.15
2022-12-11T15:10:38.744Z,3.78
2022-12-11T15:14:07.438Z,4.72
2022-12-11T15:17:13.701Z,4.97
2022-12-11T15:20:27.318Z,3.85
2022-12-11T15:23:30.134Z,4.25
2022-12-11T15:26:40.114Z,4.18
2022-12-11T15:29:42.305Z,4.38
2022-12-11T15:32:45.118Z,4.60
2022-12-11T15:35:57.619Z,4.20
2022-12-11T15:38:59.867Z,4.57
2022-12-11T15:42:02.128Z,4.55
2022-12-11T15:45:22.289Z,3.97
2022-12-11T15:48:24.556Z,4.43
2022-12-11T15:51:27.670Z,4.75
2022-12-11T15:54:30.002Z,4.60
2022-12-11T15:57:32.297Z,4.68
2022-12-11T16:00:34.801Z,4.72
2022-12-11T16:03:37.159Z,4.40
2022-12-11T16:06:45.274Z,4.15
2022-12-11T16:09:47.582Z,4.30
2022-12-11T16:12:50.049Z,4.40
2022-12-11T16:15:53.824Z,4.90
2022-12-11T16:18:56.385Z,5.03
2022-12-11T16:21:58.740Z,4.93
2022-12-11T16:25:01.138Z,4.80
2022-12-11T16:28:03.569Z,4.93
2022-12-11T16:31:15.987Z,4.85
2022-12-11T16:34:18.501Z,4.60
2022-12-11T16:37:20.741Z,4.13
2022-12-11T16:40:23.365Z,4.95
2022-12-11T16:43:25.678Z,5.20
2022-12-11T16:46:28.005Z,5.35
2022-12-11T16:49:31.494Z,4.83
2022-12-11T16:52:33.902Z,4.75
2022-12-11T16:55:36.132Z,4.38
2022-12-11T16:58:38.379Z,5.07
2022-12-11T17:01:40.700Z,5.43
2022-12-11T17:04:43.056Z,4.47
2022-12-11T17:07:45.452Z,4.18
2022-12-11T17:10:47.754Z,4.25
2022-12-11T17:13:56.903Z,4.35
2022-12-11T17:16:59.339Z,4.97
2022-12-11T17:20:01.680Z,4.30
2022-12-11T17:23:04.115Z,4.70
2022-12-11T17:26:08.813Z,6.53
2022-12-11T17:29:12.004Z,4.93
2022-12-11T17:32:14.949Z,4.07
2022-12-11T17:35:17.612Z,4.57
2022-12-11T17:38:20.124Z,3.70
2022-12-11T17:41:22.785Z,3.95
2022-12-11T17:44:26.827Z,4.70
2022-12-11T17:47:29.294Z,4.55
2022-12-11T17:50:31.758Z,4.33
2022-12-11T17:53:34.229Z,4.63
2022-12-11T17:56:36.931Z,4.88
2022-12-11T17:59:39.398Z,4.65
2022-12-11T18:02:41.740Z,5.00
2022-12-11T18:05:44.880Z,4.67
2022-12-11T18:08:47.400Z,5.07
2022-12-11T18:11:49.651Z,3.67
2022-12-11T18:14:52.099Z,5.55
2022-12-11T18:17:56.768Z,4.55
2022-12-11T18:20:59.189Z,4.20
2022-12-11T18:24:02.312Z,4.18
2022-12-11T18:27:04.733Z,3.78
2022-12-11T18:30:07.325Z,4.60
2022-12-11T18:33:10.476Z,4.45
2022-12-11T18:36:13.983Z,4.13
2022-12-11T18:39:16.303Z,4.18
2022-12-11T18:42:34.065Z,3.72
2022-12-11T18:45:39.139Z,3.50
2022-12-11T18:48:42.418Z,4.00
2022-12-11T18:51:44.935Z,3.47
2022-12-11T18:54:47.627Z,4.40
2022-12-11T18:57:51.928Z,4.05
2022-12-11T19:00:54.483Z,3.80
2022-12-11T19:04:02.677Z,4.55
2022-12-11T19:07:06.180Z,3.83
2022-12-11T19:10:08.789Z,4.00
2022-12-11T19:13:11.425Z,4.00
2022-12-11T19:16:22.205Z,5.00
2022-12-11T19:19:24.639Z,4.82
2022-12-11T19:22:27.021Z,4.10
2022-12-11T19:25:29.453Z,4.15
2022-12-11T19:28:33.966Z,4.57
2022-12-11T19:31:36.694Z,4.53
2022-12-11T19:34:39.370Z,3.75
2022-12-11T19:37:41.751Z,5.47
2022-12-11T19:40:44.542Z,4.47
2022-12-11T19:43:47.112Z,4.40
2022-12-11T19:46:49.597Z,3.70
2022-12-11T19:49:52.030Z,4.10
2022-12-11T19:52:54.365Z,3.57
2022-12-11T19:55:57.036Z,4.32
2022-12-11T19:59:00.824Z,4.38
2022-12-11T20:02:03.224Z,4.70
2022-12-11T20:05:06.183Z,3.97
2022-12-11T20:08:35.717Z,5.70
2022-12-11T20:11:31.962Z,4.65
2022-12-11T20:14:34.370Z,5.00
2022-12-11T20:17:38.098Z,3.75
2022-12-11T20:20:40.517Z,4.38
2022-12-11T20:23:43.079Z,5.13
2022-12-11T20:26:47.154Z,5.20
2022-12-11T20:29:49.680Z,5.43
2022-12-11T20:32:52.742Z,5.15
2022-12-11T20:35:55.091Z,4.88
2022-12-11T20:38:57.520Z,5.33
2022-12-11T20:42:01.185Z,5.35
2022-12-11T20:45:04.046Z,4.63
2022-12-11T20:48:06.529Z,5.47
2022-12-11T20:51:09.797Z,5.85
2022-12-11T20:54:12.186Z,5.80
2022-12-11T20:57:16.346Z,5.75
2022-12-11T21:00:19.248Z,5.82
2022-12-11T21:03:21.764Z,5.22
2022-12-11T21:06:31.067Z,4.50
2022-12-11T21:09:33.596Z,5.87
2022-12-11T21:12:36.106Z,7.22
2022-12-11T21:15:39.398Z,5.82
2022-12-11T21:18:44.292Z,5.82
2022-12-11T21:21:46.662Z,5.80
2022-12-11T21:24:48.881Z,6.70
2022-12-11T21:27:51.026Z,6.55
2022-12-11T21:30:53.494Z,8.10
2022-12-11T21:33:55.688Z,7.95
2022-12-11T21:36:57.872Z,8.20
2022-12-11T21:40:00.347Z,8.13
2022-12-11T21:43:02.647Z,8.38
2022-12-11T21:46:05.362Z,8.75
2022-12-11T21:49:08.520Z,9.32
2022-12-11T21:52:10.827Z,10.38
2022-12-11T21:55:13.649Z,9.47
2022-12-11T21:58:16.041Z,9.30
2022-12-11T22:01:20.427Z,8.98
2022-12-11T22:04:22.681Z,8.88
2022-12-11T22:07:25.180Z,8.77
2022-12-11T22:10:28.332Z,9.40
2022-12-11T22:13:30.780Z,8.65
2022-12-11T22:16:33.856Z,11.80
2022-12-11T22:19:36.080Z,11.00
2022-12-11T22:22:38.314Z,8.77
2022-12-11T22:25:40.542Z,9.93
2022-12-11T22:28:42.851Z,9.63
2022-12-11T22:31:45.029Z,11.73
2022-12-11T22:34:47.224Z,8.93
2022-12-11T22:37:49.423Z,9.27
2022-12-11T22:40:52.254Z,9.83
2022-12-11T22:43:54.955Z,9.93
2022-12-11T22:46:57.528Z,10.20
2022-12-11T22:49:59.738Z,8.90
2022-12-11T22:53:02.065Z,10.00
2022-12-11T22:56:07.884Z,10.10
2022-12-11T22:59:10.103Z,9.43
2022-12-11T23:02:12.499Z,8.98
2022-12-11T23:05:15.044Z,10.48
2022-12-11T23:08:18.141Z,9.88
2022-12-11T23:11:28.133Z,8.40
2022-12-11T23:14:30.337Z,10.20
2022-12-11T23:17:32.628Z,10.00
2022-12-11T23:20:34.877Z,8.98
2022-12-11T23:23:37.360Z,9.57
2022-12-11T23:26:40.080Z,8.83
2022-12-11T23:29:42.269Z,9.45
2022-12-11T23:32:44.447Z,11.35
2022-12-11T23:35:46.699Z,9.43
2022-12-11T23:38:54.375Z,9.70
2022-12-11T23:41:57.170Z,10.70
2022-12-11T23:44:59.358Z,10.40
2022-12-11T23:48:01.563Z,9.82
2022-12-11T23:51:04.683Z,7.97
2022-12-11T23:54:07.128Z,9.02
2022-12-11T23:57:09.389Z,8.40
